Time;durP1;ratioP1;P1;durP2;ratioP2;P2;SDS_P1;SDS_P2;PMS_P1;PMS_P2;Temp;Humidity;BMP_temperature;BMP_pressure;BME280_temperature;BME280_humidity;BME280_pressure;Samples;Min_cycle;Max_cycle;Signal;HPM_P1;HPM_P2
2022/11/22 00:01:51;;;;;;;90.15;24.90;;;;;;;;;;6185227;23;20008;-33
2022/11/22 00:04:16;;;;;;;158.10;30.23;;;;;;;;;;6185079;23;20009;-33
2022/11/22 00:06:41;;;;;;;167.82;28.88;;;;;;;;;;6185223;23;19993;-33
2022/11/22 00:09:07;;;;;;;152.15;28.88;;;;;;;;;;6185115;23;20502;-33
2022/11/22 00:11:32;;;;;;;149.55;29.90;;;;;;;;;;6185072;23;20286;-33
2022/11/22 00:13:57;;;;;;;117.20;24.98;;;;;;;;;;6184868;23;20005;-33
2022/11/22 00:16:22;;;;;;;134.18;27.58;;;;;;;;;;6185121;23;19997;-33
2022/11/22 00:18:48;;;;;;;99.13;26.90;;;;;;;;;;6184994;23;20021;-33
2022/11/22 00:21:13;;;;;;;66.20;24.88;;;;;;;;;;6185061;23;19993;-33
2022/11/22 00:23:38;;;;;;;69.72;27.17;;;;;;;;;;6185028;23;20056;-33
2022/11/22 00:26:03;;;;;;;70.60;25.92;;;;;;;;;;6185493;23;20020;-33
2022/11/22 00:28:29;;;;;;;43.88;22.38;;;;;;;;;;6186873;23;19996;-33
2022/11/22 00:30:54;;;;;;;59.90;25.00;;;;;;;;;;6185716;23;19997;-33
2022/11/22 00:33:19;;;;;;;61.90;27.17;;;;;;;;;;6186256;23;19997;-33
2022/11/22 00:35:45;;;;;;;66.47;27.38;;;;;;;;;;6187315;23;20072;-33
2022/11/22 00:38:10;;;;;;;71.50;26.25;;;;;;;;;;6186871;23;20059;-33
2022/11/22 00:40:35;;;;;;;56.50;25.00;;;;;;;;;;6186286;23;20025;-33
2022/11/22 00:43:00;;;;;;;78.13;25.23;;;;;;;;;;6186603;23;19989;-33
2022/11/22 00:45:26;;;;;;;75.80;24.40;;;;;;;;;;6186826;23;20013;-33
2022/11/22 00:47:51;;;;;;;72.05;29.13;;;;;;;;;;6186894;23;20024;-33
2022/11/22 00:50:16;;;;;;;44.55;22.42;;;;;;;;;;6186937;23;19997;-33
2022/11/22 00:52:41;;;;;;;67.18;28.15;;;;;;;;;;6186599;23;20000;-34
2022/11/22 00:55:07;;;;;;;82.18;28.60;;;;;;;;;;6186673;23;20417;-33
2022/11/22 00:57:32;;;;;;;109.93;30.92;;;;;;;;;;6186842;23;20020;-34
2022/11/22 00:59:57;;;;;;;50.60;24.02;;;;;;;;;;6186716;23;20008;-33
2022/11/22 01:02:22;;;;;;;48.15;23.05;;;;;;;;;;6186778;23;20063;-33
2022/11/22 01:04:48;;;;;;;70.50;27.17;;;;;;;;;;6186247;23;20036;-33
2022/11/22 01:07:13;;;;;;;61.17;26.65;;;;;;;;;;6186622;23;20000;-33
2022/11/22 01:09:38;;;;;;;59.60;27.27;;;;;;;;;;6186607;23;19997;-34
2022/11/22 01:12:04;;;;;;;71.95;26.48;;;;;;;;;;6186710;23;20401;-33
2022/11/22 01:14:29;;;;;;;70.68;28.13;;;;;;;;;;6186058;23;20070;-33
2022/11/22 01:16:54;;;;;;;69.88;29.85;;;;;;;;;;6186425;23;19997;-33
2022/11/22 01:19:19;;;;;;;68.85;29.80;;;;;;;;;;6186414;23;20375;-33
2022/11/22 01:21:45;;;;;;;75.15;27.58;;;;;;;;;;6186585;23;20001;-33
2022/11/22 01:24:10;;;;;;;59.35;27.02;;;;;;;;;;6186562;23;20009;-33
2022/11/22 01:26:35;;;;;;;63.30;26.25;;;;;;;;;;6186579;23;20001;-33
2022/11/22 01:29:00;;;;;;;87.65;30.70;;;;;;;;;;6186238;23;20410;-33
2022/11/22 01:31:26;;;;;;;72.03;29.55;;;;;;;;;;6186173;23;20064;-35
2022/11/22 01:33:51;;;;;;;74.07;30.15;;;;;;;;;;6186549;23;19993;-33
2022/11/22 01:36:16;;;;;;;65.32;28.55;;;;;;;;;;6185994;23;20361;-33
2022/11/22 01:38:41;;;;;;;72.50;32.40;;;;;;;;;;6185773;23;20017;-33
2022/11/22 01:41:07;;;;;;;81.85;34.30;;;;;;;;;;6186566;23;20406;-33
2022/11/22 01:43:32;;;;;;;73.75;33.42;;;;;;;;;;6186117;23;19993;-33
2022/11/22 01:46:00;;;;;;;84.65;33.88;;;;;;;;;;6186365;23;19997;-33
2022/11/22 01:48:39;;;;;;;73.07;32.70;;;;;;;;;;6186715;23;20059;-33
2022/11/22 01:51:08;;;;;;;64.80;29.58;;;;;;;;;;6186318;23;20429;-33
2022/11/22 01:53:33;;;;;;;;;;;;;;;;;;6186631;23;19993;-33
2022/11/22 01:55:59;;;;;;;54.63;27.80;;;;;;;;;;6186113;23;19943;-33
2022/11/22 01:58:26;;;;;;;56.05;26.05;;;;;;;;;;6186112;23;20005;-33
2022/11/22 02:00:51;;;;;;;53.30;26.13;;;;;;;;;;6186550;23;20052;-33
2022/11/22 02:03:17;;;;;;;52.72;23.65;;;;;;;;;;6186275;23;20309;-33
2022/11/22 02:05:43;;;;;;;62.10;25.48;;;;;;;;;;6185936;23;20005;-33
2022/11/22 02:08:14;;;;;;;48.90;24.13;;;;;;;;;;6186299;23;20013;-33
2022/11/22 02:10:42;;;;;;;52.85;25.00;;;;;;;;;;6185793;23;20005;-34
2022/11/22 02:13:09;;;;;;;51.42;23.75;;;;;;;;;;6185978;23;20075;-34
2022/11/22 02:15:34;;;;;;;56.05;22.90;;;;;;;;;;6185514;23;20009;-33
2022/11/22 02:17:59;;;;;;;63.88;21.73;;;;;;;;;;6185825;23;20068;-33
2022/11/22 02:20:25;;;;;;;40.30;20.05;;;;;;;;;;6185998;23;20068;-34
2022/11/22 02:23:13;;;;;;;80.53;23.73;;;;;;;;;;6185820;23;20401;-33
2022/11/22 02:25:41;;;;;;;49.97;21.15;;;;;;;;;;6166045;23;20012;-34
2022/11/22 02:28:11;;;;;;;50.92;21.10;;;;;;;;;;6185838;23;19997;-33
2022/11/22 02:30:37;;;;;;;59.05;21.95;;;;;;;;;;6185815;23;20095;-33
2022/11/22 02:33:02;;;;;;;57.05;24.35;;;;;;;;;;6186081;23;20432;-33
2022/11/22 02:35:28;;;;;;;69.43;25.33;;;;;;;;;;6185981;23;19989;-34
2022/11/22 02:37:58;;;;;;;44.83;22.63;;;;;;;;;;6185708;23;20011;-34
2022/11/22 02:40:25;;;;;;;60.83;27.60;;;;;;;;;;6185762;23;20383;-33
2022/11/22 02:42:54;;;;;;;56.10;25.58;;;;;;;;;;6185721;23;20021;-33
2022/11/22 02:45:19;;;;;;;70.05;31.05;;;;;;;;;;6185752;23;20016;-33
2022/11/22 02:47:44;;;;;;;70.65;30.70;;;;;;;;;;6185429;23;19997;-33
2022/11/22 02:50:10;;;;;;;82.28;33.88;;;;;;;;;;6185208;23;19997;-33
2022/11/22 02:52:35;;;;;;;77.68;29.42;;;;;;;;;;6185616;23;20149;-33
2022/11/22 02:55:00;;;;;;;85.63;35.88;;;;;;;;;;6185281;23;19997;-33
2022/11/22 02:57:25;;;;;;;75.03;31.15;;;;;;;;;;6185876;23;20349;-36
2022/11/22 02:59:51;;;;;;;84.63;35.97;;;;;;;;;;6185426;23;20286;-33
2022/11/22 03:02:16;;;;;;;76.43;30.38;;;;;;;;;;6185620;23;20033;-33
2022/11/22 03:04:41;;;;;;;94.10;31.63;;;;;;;;;;6184983;23;20035;-34
2022/11/22 03:07:06;;;;;;;86.82;36.88;;;;;;;;;;6185236;23;20056;-33
2022/11/22 03:09:32;;;;;;;75.40;29.80;;;;;;;;;;6185620;23;19993;-33
2022/11/22 03:11:57;;;;;;;83.93;35.17;;;;;;;;;;6185377;23;20056;-33
2022/11/22 03:14:23;;;;;;;78.30;29.95;;;;;;;;;;6185212;23;20063;-33
2022/11/22 03:16:48;;;;;;;78.22;31.17;;;;;;;;;;6185507;23;20072;-35
2022/11/22 03:19:13;;;;;;;69.57;29.60;;;;;;;;;;6185260;23;20483;-34
2022/11/22 03:21:39;;;;;;;78.85;31.17;;;;;;;;;;6185264;23;20008;-33
2022/11/22 03:24:05;;;;;;;77.57;29.10;;;;;;;;;;6184857;23;20665;-34
2022/11/22 03:26:30;;;;;;;69.05;28.92;;;;;;;;;;6184106;23;20072;-34
2022/11/22 03:28:56;;;;;;;72.38;30.05;;;;;;;;;;6184878;23;20001;-33
2022/11/22 03:31:21;;;;;;;72.55;30.45;;;;;;;;;;6184697;23;20004;-33
2022/11/22 03:33:46;;;;;;;78.35;29.60;;;;;;;;;;6184817;23;19997;-34
2022/11/22 03:36:12;;;;;;;81.03;30.35;;;;;;;;;;6184548;23;20008;-33
2022/11/22 03:38:37;;;;;;;74.40;28.92;;;;;;;;;;6185399;23;19996;-33
2022/11/22 03:41:02;;;;;;;92.45;33.85;;;;;;;;;;6185092;23;20127;-34
2022/11/22 03:43:27;;;;;;;82.65;31.80;;;;;;;;;;6185473;23;20004;-33
2022/11/22 03:45:52;;;;;;;69.97;27.23;;;;;;;;;;6185043;23;20353;-33
2022/11/22 03:48:18;;;;;;;62.70;26.95;;;;;;;;;;6185119;23;20001;-33
2022/11/22 03:50:44;;;;;;;82.55;33.33;;;;;;;;;;6184944;23;19989;-33
2022/11/22 03:53:09;;;;;;;78.72;32.85;;;;;;;;;;6184972;23;20000;-33
2022/11/22 03:55:34;;;;;;;85.03;36.53;;;;;;;;;;6185160;23;19997;-33
2022/11/22 03:57:59;;;;;;;89.50;31.35;;;;;;;;;;6185100;23;20050;-33
2022/11/22 04:00:25;;;;;;;74.07;30.33;;;;;;;;;;6185484;23;19997;-33
2022/11/22 04:02:50;;;;;;;75.15;29.25;;;;;;;;;;6187093;23;20076;-33
2022/11/22 04:05:15;;;;;;;66.32;28.80;;;;;;;;;;6186967;23;20013;-33
2022/11/22 04:07:41;;;;;;;71.82;25.95;;;;;;;;;;6187063;23;20026;-33
2022/11/22 04:10:06;;;;;;;75.90;28.73;;;;;;;;;;6187268;23;20123;-33
2022/11/22 04:12:31;;;;;;;93.07;30.45;;;;;;;;;;6186546;23;20009;-34
2022/11/22 04:15:06;;;;;;;68.38;26.55;;;;;;;;;;6186523;23;20068;-33
2022/11/22 04:17:43;;;;;;;74.57;24.73;;;;;;;;;;6186959;23;19989;-34
2022/11/22 04:22:59;;;;;;;91.97;29.23;;;;;;;;;;6186397;23;20443;-34
2022/11/22 04:25:26;;;;;;;62.03;24.27;;;;;;;;;;6186795;23;20250;-34
2022/11/22 04:27:51;;;;;;;69.53;24.63;;;;;;;;;;6186876;23;19997;-34
2022/11/22 04:30:16;;;;;;;67.00;24.75;;;;;;;;;;6186215;23;20008;-34
2022/11/22 04:32:44;;;;;;;111.32;27.40;;;;;;;;;;6187037;23;20080;-34
2022/11/22 04:35:10;;;;;;;93.55;30.65;;;;;;;;;;6186826;23;20131;-34
2022/11/22 04:37:35;;;;;;;79.72;26.08;;;;;;;;;;6186631;23;20428;-33
2022/11/22 04:40:01;;;;;;;77.60;25.13;;;;;;;;;;6186772;23;19989;-33
2022/11/22 04:45:10;;;;;;;84.03;25.23;;;;;;;;;;6186375;23;20385;-34
2022/11/22 04:53:03;;;;;;;67.07;24.38;;;;;;;;;;6186128;23;20064;-34
2022/11/22 04:55:28;;;;;;;89.43;27.73;;;;;;;;;;6186663;23;19997;-33
2022/11/22 04:57:53;;;;;;;83.20;27.10;;;;;;;;;;6186695;23;20077;-33
2022/11/22 05:00:18;;;;;;;80.07;25.52;;;;;;;;;;6186510;23;19997;-34
2022/11/22 05:02:44;;;;;;;67.30;23.52;;;;;;;;;;6186764;23;20004;-34
2022/11/22 05:05:09;;;;;;;78.13;26.60;;;;;;;;;;6186419;23;20012;-34
2022/11/22 05:07:34;;;;;;;96.22;25.85;;;;;;;;;;6160013;23;20001;-34
2022/11/22 05:09:59;;;;;;;91.10;26.05;;;;;;;;;;6186481;23;20452;-34
2022/11/22 05:12:25;;;;;;;57.95;22.25;;;;;;;;;;6185824;23;19997;-35
2022/11/22 05:14:50;;;;;;;74.72;26.48;;;;;;;;;;6186035;23;20052;-34
2022/11/22 05:17:15;;;;;;;114.70;26.23;;;;;;;;;;6186184;23;19993;-34
2022/11/22 05:19:40;;;;;;;71.90;22.75;;;;;;;;;;6186432;23;20415;-34
2022/11/22 05:22:05;;;;;;;72.32;23.92;;;;;;;;;;6186628;23;20432;-34
2022/11/22 05:24:31;;;;;;;72.45;24.10;;;;;;;;;;6185987;23;20049;-34
2022/11/22 05:26:56;;;;;;;85.30;24.75;;;;;;;;;;6159886;23;20044;-34
2022/11/22 05:29:21;;;;;;;92.07;24.95;;;;;;;;;;6186290;23;19993;-34
2022/11/22 05:31:46;;;;;;;85.30;23.90;;;;;;;;;;6186184;23;19997;-34
2022/11/22 05:34:12;;;;;;;106.55;25.88;;;;;;;;;;6186317;23;20287;-35
2022/11/22 05:36:37;;;;;;;73.10;25.55;;;;;;;;;;6186334;23;19997;-34
2022/11/22 05:39:02;;;;;;;107.97;28.95;;;;;;;;;;6185921;23;20313;-34
2022/11/22 05:41:28;;;;;;;89.13;25.08;;;;;;;;;;6186241;23;19993;-35
2022/11/22 05:43:56;;;;;;;112.22;28.92;;;;;;;;;;6159740;23;20009;-34
2022/11/22 05:46:23;;;;;;;87.03;27.10;;;;;;;;;;6186122;23;19997;-32
2022/11/22 05:48:48;;;;;;;79.55;26.75;;;;;;;;;;6186148;23;19989;-34
2022/11/22 05:51:17;;;;;;;90.40;26.10;;;;;;;;;;6185691;23;19993;-33
2022/11/22 05:53:42;;;;;;;;;;;;;;;;;;6186302;23;20056;-33
2022/11/22 05:56:09;;;;;;;104.90;27.00;;;;;;;;;;6186024;23;19904;-33
2022/11/22 05:58:34;;;;;;;91.40;25.75;;;;;;;;;;6185667;23;19993;-33
2022/11/22 06:01:19;;;;;;;94.75;25.95;;;;;;;;;;6185893;23;20001;-33
2022/11/22 06:03:44;;;;;;;106.57;29.73;;;;;;;;;;6159524;23;20269;-36
2022/11/22 06:06:10;;;;;;;99.50;27.45;;;;;;;;;;6159301;23;19993;-34
2022/11/22 06:08:37;;;;;;;135.00;28.77;;;;;;;;;;6185491;23;20068;-34
2022/11/22 06:11:09;;;;;;;87.63;26.33;;;;;;;;;;6185804;23;19997;-34
2022/11/22 06:13:35;;;;;;;130.77;27.30;;;;;;;;;;6185736;23;19989;-34
2022/11/22 06:16:01;;;;;;;116.68;29.35;;;;;;;;;;6185327;23;20337;-33
2022/11/22 06:18:26;;;;;;;98.10;25.65;;;;;;;;;;6185706;23;20036;-34
2022/11/22 06:20:54;;;;;;;93.72;26.70;;;;;;;;;;6185360;23;20048;-34
2022/11/22 06:23:20;;;;;;;143.47;31.40;;;;;;;;;;6185057;23;19993;-34
2022/11/22 06:25:45;;;;;;;93.68;28.45;;;;;;;;;;6185614;23;20282;-34
2022/11/22 06:28:10;;;;;;;103.13;27.05;;;;;;;;;;6185144;23;19997;-34
2022/11/22 06:30:35;;;;;;;133.27;29.20;;;;;;;;;;6185250;23;19997;-34
2022/11/22 06:33:01;;;;;;;95.95;26.83;;;;;;;;;;6185370;23;20000;-32
2022/11/22 06:35:26;;;;;;;100.82;27.90;;;;;;;;;;6184819;23;20005;-32
2022/11/22 06:37:51;;;;;;;79.20;24.10;;;;;;;;;;6185012;23;19993;-32
2022/11/22 06:40:17;;;;;;;112.63;27.92;;;;;;;;;;6185006;23;20025;-33
2022/11/22 06:42:43;;;;;;;86.25;28.02;;;;;;;;;;6185596;23;19992;-32
2022/11/22 06:45:08;;;;;;;108.65;32.63;;;;;;;;;;6185425;23;20069;-32
2022/11/22 06:47:33;;;;;;;95.50;27.67;;;;;;;;;;6185483;23;19994;-35
2022/11/22 06:49:59;;;;;;;81.63;26.25;;;;;;;;;;6184324;23;20282;-32
2022/11/22 06:52:25;;;;;;;88.03;27.73;;;;;;;;;;6185373;23;19994;-32
2022/11/22 06:54:50;;;;;;;89.47;26.60;;;;;;;;;;6185262;23;20005;-32
2022/11/22 06:57:15;;;;;;;102.03;32.25;;;;;;;;;;6184551;23;20079;-32
2022/11/22 06:59:41;;;;;;;98.38;26.08;;;;;;;;;;6184955;23;20044;-32
2022/11/22 07:02:09;;;;;;;94.57;27.63;;;;;;;;;;6185511;23;20001;-32
2022/11/22 07:04:34;;;;;;;100.75;31.25;;;;;;;;;;6185325;23;20012;-33
2022/11/22 07:07:00;;;;;;;91.13;27.27;;;;;;;;;;6183940;23;20001;-32
2022/11/22 07:09:25;;;;;;;102.93;30.73;;;;;;;;;;6184748;23;19997;-32
2022/11/22 07:11:50;;;;;;;97.65;30.27;;;;;;;;;;6184769;23;20124;-35
2022/11/22 07:14:15;;;;;;;104.20;32.75;;;;;;;;;;6184492;23;20024;-32
2022/11/22 07:16:41;;;;;;;104.25;34.75;;;;;;;;;;6185615;23;20441;-32
2022/11/22 07:19:06;;;;;;;96.50;31.50;;;;;;;;;;6185112;23;20001;-32
2022/11/22 07:21:32;;;;;;;98.30;37.47;;;;;;;;;;6185278;23;19997;-33
2022/11/22 07:23:57;;;;;;;91.82;28.17;;;;;;;;;;6184858;23;20087;-33
2022/11/22 07:26:23;;;;;;;99.57;30.85;;;;;;;;;;6185375;23;19993;-33
2022/11/22 07:28:49;;;;;;;118.85;35.83;;;;;;;;;;6185268;23;20004;-35
2022/11/22 07:31:15;;;;;;;102.15;30.38;;;;;;;;;;6185019;23;20321;-33
2022/11/22 07:33:41;;;;;;;104.00;30.35;;;;;;;;;;6184944;23;19995;-33
2022/11/22 07:36:13;;;;;;;102.00;31.02;;;;;;;;;;6185210;23;20001;-33
2022/11/22 07:38:38;;;;;;;109.35;36.55;;;;;;;;;;6184516;23;20003;-33
2022/11/22 07:41:05;;;;;;;97.47;32.03;;;;;;;;;;6184619;23;20017;-33
2022/11/22 07:43:30;;;;;;;95.28;32.40;;;;;;;;;;6184587;23;20452;-33
2022/11/22 07:45:59;;;;;;;85.20;31.23;;;;;;;;;;6184945;23;20001;-35
2022/11/22 07:48:24;;;;;;;90.40;31.45;;;;;;;;;;6184877;23;20038;-33
2022/11/22 07:50:50;;;;;;;78.70;31.48;;;;;;;;;;6157459;23;20004;-32
2022/11/22 07:53:15;;;;;;;97.22;29.98;;;;;;;;;;6184623;23;20072;-33
2022/11/22 07:55:40;;;;;;;83.40;29.65;;;;;;;;;;6184839;23;19997;-33
2022/11/22 07:58:06;;;;;;;80.80;28.30;;;;;;;;;;6184706;23;20076;-33
2022/11/22 08:00:32;;;;;;;78.20;29.60;;;;;;;;;;6184811;23;20017;-33
2022/11/22 08:02:58;;;;;;;68.57;26.42;;;;;;;;;;6184506;23;20294;-33
2022/11/22 08:05:23;;;;;;;75.43;26.60;;;;;;;;;;6185059;23;20020;-33
2022/11/22 08:07:49;;;;;;;68.15;25.75;;;;;;;;;;6184669;23;19994;-33
2022/11/22 08:10:15;;;;;;;74.03;26.85;;;;;;;;;;6184796;23;20000;-32
2022/11/22 08:12:40;;;;;;;66.30;27.20;;;;;;;;;;6184964;23;20004;-33
2022/11/22 08:15:06;;;;;;;67.07;24.83;;;;;;;;;;6184855;23;20009;-33
2022/11/22 08:17:31;;;;;;;56.70;23.70;;;;;;;;;;6184839;23;20071;-33
2022/11/22 08:19:56;;;;;;;65.63;26.88;;;;;;;;;;6184627;23;20086;-33
2022/11/22 08:22:22;;;;;;;63.60;25.38;;;;;;;;;;6184761;23;19993;-34
2022/11/22 08:24:47;;;;;;;51.17;23.20;;;;;;;;;;6184568;23;20016;-33
2022/11/22 08:27:12;;;;;;;47.33;21.00;;;;;;;;;;6185171;23;20003;-34
2022/11/22 08:29:38;;;;;;;55.00;22.23;;;;;;;;;;6184833;23;20066;-35
2022/11/22 08:32:03;;;;;;;44.97;19.80;;;;;;;;;;6184567;23;19993;-33
2022/11/22 08:34:29;;;;;;;48.90;24.00;;;;;;;;;;6184473;23;19997;-34
2022/11/22 08:36:54;;;;;;;44.60;21.17;;;;;;;;;;6184886;23;20032;-33
2022/11/22 08:39:20;;;;;;;39.17;19.05;;;;;;;;;;6184869;23;20024;-34
2022/11/22 08:41:46;;;;;;;46.20;20.27;;;;;;;;;;6184694;23;19993;-33
2022/11/22 08:44:11;;;;;;;42.60;20.38;;;;;;;;;;6184660;23;20005;-33
2022/11/22 08:46:37;;;;;;;47.28;20.25;;;;;;;;;;6184096;23;20008;-34
2022/11/22 08:49:05;;;;;;;40.83;20.17;;;;;;;;;;6185881;23;19993;-34
2022/11/22 08:51:30;;;;;;;39.45;17.77;;;;;;;;;;6180771;23;20004;-33
2022/11/22 08:53:56;;;;;;;45.80;20.38;;;;;;;;;;6157412;23;20076;-33
2022/11/22 08:56:21;;;;;;;45.80;20.38;;;;;;;;;;6183923;23;19997;-33
2022/11/22 08:58:46;;;;;;;42.17;20.83;;;;;;;;;;6185896;23;20001;-33
2022/11/22 09:01:15;;;;;;;42.47;21.67;;;;;;;;;;6184924;23;20744;-33
2022/11/22 09:03:41;;;;;;;38.88;19.10;;;;;;;;;;6186267;23;20008;-33
2022/11/22 09:06:08;;;;;;;44.88;20.73;;;;;;;;;;6185763;23;20084;-33
2022/11/22 09:08:33;;;;;;;43.28;21.00;;;;;;;;;;6159101;23;20025;-33
2022/11/22 09:11:00;;;;;;;48.92;19.90;;;;;;;;;;6185768;23;20004;-33
2022/11/22 09:13:25;;;;;;;43.55;19.30;;;;;;;;;;6184580;23;20406;-33
2022/11/22 09:15:50;;;;;;;36.05;16.92;;;;;;;;;;6157858;23;20109;-32
2022/11/22 09:18:16;;;;;;;32.22;15.48;;;;;;;;;;6184075;23;20005;-33
2022/11/22 09:20:41;;;;;;;41.00;17.27;;;;;;;;;;6156749;23;20005;-32
2022/11/22 09:23:06;;;;;;;29.10;14.95;;;;;;;;;;6158244;23;19997;-33
2022/11/22 09:25:32;;;;;;;36.28;17.52;;;;;;;;;;6158463;23;20036;-33
2022/11/22 09:28:03;;;;;;;30.98;17.95;;;;;;;;;;6182283;23;20001;-33
2022/11/22 09:30:29;;;;;;;32.53;15.57;;;;;;;;;;6182446;23;19997;-33
2022/11/22 09:32:54;;;;;;;29.13;17.15;;;;;;;;;;6179585;23;19997;-34
2022/11/22 09:35:19;;;;;;;31.70;15.68;;;;;;;;;;6184173;23;20001;-33
2022/11/22 09:37:45;;;;;;;30.48;14.93;;;;;;;;;;6182977;23;20052;-33
2022/11/22 09:40:10;;;;;;;31.88;16.13;;;;;;;;;;6185026;23;20425;-33
2022/11/22 09:42:36;;;;;;;28.17;14.05;;;;;;;;;;6180951;23;20069;-34
2022/11/22 09:45:19;;;;;;;26.75;14.18;;;;;;;;;;6182606;23;20043;-33
2022/11/22 09:47:45;;;;;;;27.08;14.57;;;;;;;;;;6183331;23;20068;-32
2022/11/22 09:50:23;;;;;;;29.85;15.40;;;;;;;;;;6183079;23;20028;-33
2022/11/22 09:52:49;;;;;;;33.92;15.10;;;;;;;;;;6183180;23;19997;-33
2022/11/22 09:55:35;;;;;;;29.00;13.63;;;;;;;;;;6182677;23;19997;-34
2022/11/22 09:58:15;;;;;;;31.10;15.07;;;;;;;;;;6184542;23;20001;-34
2022/11/22 10:00:41;;;;;;;27.85;15.07;;;;;;;;;;6184102;23;20377;-34
2022/11/22 10:03:15;;;;;;;31.77;18.05;;;;;;;;;;6156825;23;20084;-33
2022/11/22 10:05:51;;;;;;;28.25;14.63;;;;;;;;;;6184990;23;20008;-34
2022/11/22 10:08:35;;;;;;;25.52;14.88;;;;;;;;;;6182600;23;20011;-34
2022/11/22 10:11:02;;;;;;;28.77;15.27;;;;;;;;;;6182554;23;20075;-33
2022/11/22 10:13:27;;;;;;;28.95;13.70;;;;;;;;;;6182430;23;20027;-33
2022/11/22 10:15:55;;;;;;;26.50;13.25;;;;;;;;;;6183640;23;20362;-33
2022/11/22 10:18:33;;;;;;;25.40;13.38;;;;;;;;;;6183575;23;20072;-34
2022/11/22 10:20:58;;;;;;;24.80;12.98;;;;;;;;;;6183600;23;20036;-33
2022/11/22 10:23:24;;;;;;;26.55;13.00;;;;;;;;;;6184463;23;20380;-33
2022/11/22 10:25:56;;;;;;;28.33;13.15;;;;;;;;;;6184993;23;20017;-33
2022/11/22 10:28:32;;;;;;;28.20;13.55;;;;;;;;;;6185093;23;20025;-33
2022/11/22 10:31:01;;;;;;;25.80;14.10;;;;;;;;;;6158547;23;20005;-34
2022/11/22 10:33:37;;;;;;;22.75;12.23;;;;;;;;;;6184526;23;20671;-33
2022/11/22 10:36:15;;;;;;;28.67;13.43;;;;;;;;;;6184928;23;20071;-32
2022/11/22 10:38:43;;;;;;;25.60;13.15;;;;;;;;;;6185044;23;20450;-33
2022/11/22 10:41:15;;;;;;;21.67;12.88;;;;;;;;;;6158083;23;20012;-34
2022/11/22 10:43:43;;;;;;;18.05;10.68;;;;;;;;;;6184160;23;20000;-33
2022/11/22 10:46:17;;;;;;;23.60;12.45;;;;;;;;;;6184858;23;20017;-34
2022/11/22 10:48:55;;;;;;;20.88;11.55;;;;;;;;;;6184882;23;19993;-33
2022/11/22 10:51:21;;;;;;;26.75;11.93;;;;;;;;;;6184421;23;20000;-35
2022/11/22 10:53:49;;;;;;;23.55;10.75;;;;;;;;;;6157876;23;20008;-33
2022/11/22 10:56:14;;;;;;;17.88;10.02;;;;;;;;;;6184870;23;19997;-33
2022/11/22 10:58:58;;;;;;;20.17;11.90;;;;;;;;;;6184534;23;20298;-32
2022/11/22 11:01:31;;;;;;;20.00;11.20;;;;;;;;;;6157454;23;19993;-34
2022/11/22 11:04:00;;;;;;;19.42;10.95;;;;;;;;;;6182675;23;20000;-32
2022/11/22 11:06:33;;;;;;;17.23;9.25;;;;;;;;;;6184378;23;19993;-33
2022/11/22 11:09:11;;;;;;;20.77;9.82;;;;;;;;;;6184337;23;19993;-32
2022/11/22 11:11:38;;;;;;;16.23;9.23;;;;;;;;;;6182943;23;20356;-33
2022/11/22 11:14:09;;;;;;;15.68;9.35;;;;;;;;;;6182582;23;19989;-32
2022/11/22 11:16:35;;;;;;;18.48;9.02;;;;;;;;;;6183966;23;20043;-33
2022/11/22 11:19:01;;;;;;;17.63;8.88;;;;;;;;;;6184084;23;19999;-32
2022/11/22 11:21:26;;;;;;;18.30;8.88;;;;;;;;;;6183805;23;20044;-33
2022/11/22 11:23:51;;;;;;;15.27;7.88;;;;;;;;;;6182658;23;20044;-33
2022/11/22 11:26:25;;;;;;;14.48;8.60;;;;;;;;;;6183993;23;20004;-33
2022/11/22 11:29:11;;;;;;;17.05;8.57;;;;;;;;;;6184536;23;20005;-33
2022/11/22 11:31:49;;;;;;;9.82;6.65;;;;;;;;;;6157109;23;20000;-33
2022/11/22 11:34:19;;;;;;;16.63;7.65;;;;;;;;;;6184233;23;20001;-33
2022/11/22 11:36:45;;;;;;;12.88;7.15;;;;;;;;;;6182756;23;20004;-33
2022/11/22 11:39:20;;;;;;;10.80;6.35;;;;;;;;;;6182378;23;20040;-33
2022/11/22 11:41:46;;;;;;;14.27;7.22;;;;;;;;;;6156581;23;20055;-32
2022/11/22 11:44:44;;;;;;;12.57;7.53;;;;;;;;;;6183873;23;20013;-33
2022/11/22 11:47:16;;;;;;;16.25;7.60;;;;;;;;;;6102159;23;20028;-35
2022/11/22 11:49:48;;;;;;;10.45;6.10;;;;;;;;;;6183861;23;20001;-33
2022/11/22 11:52:23;;;;;;;10.75;5.88;;;;;;;;;;6156799;23;20040;-33
2022/11/22 11:54:51;;;;;;;10.30;5.70;;;;;;;;;;6183241;23;20060;-33
2022/11/22 11:57:35;;;;;;;12.67;6.57;;;;;;;;;;6182128;23;20146;-32
2022/11/22 12:00:05;;;;;;;11.55;6.78;;;;;;;;;;6184405;23;20001;-32
2022/11/22 12:02:41;;;;;;;15.55;7.32;;;;;;;;;;6180422;23;20406;-32
2022/11/22 12:05:22;;;;;;;13.40;7.75;;;;;;;;;;6181685;23;20318;-32
2022/11/22 12:07:48;;;;;;;16.17;8.02;;;;;;;;;;6181443;23;19997;-33
2022/11/22 12:10:32;;;;;;;15.98;8.25;;;;;;;;;;6155243;23;20076;-33
2022/11/22 12:13:00;;;;;;;13.98;7.15;;;;;;;;;;6154292;23;20447;-33
2022/11/22 12:15:42;;;;;;;15.20;7.32;;;;;;;;;;6181231;23;20444;-33
2022/11/22 12:18:20;;;;;;;13.30;7.32;;;;;;;;;;6184321;23;19993;-32
2022/11/22 12:20:48;;;;;;;13.27;7.32;;;;;;;;;;6184313;23;20004;-33
2022/11/22 12:23:25;;;;;;;14.73;7.50;;;;;;;;;;6183222;23;20081;-32
2022/11/22 12:25:52;;;;;;;13.43;7.18;;;;;;;;;;6184823;23;20421;-32
2022/11/22 12:28:22;;;;;;;13.00;7.22;;;;;;;;;;6186063;23;20001;-33
2022/11/22 12:30:54;;;;;;;15.38;7.28;;;;;;;;;;6185509;23;19997;-33
2022/11/22 12:33:23;;;;;;;10.98;6.70;;;;;;;;;;6158223;23;20001;-32
2022/11/22 12:35:52;;;;;;;12.82;7.22;;;;;;;;;;6185013;23;20012;-33
2022/11/22 12:38:20;;;;;;;12.30;6.80;;;;;;;;;;6183513;23;20071;-33
2022/11/22 12:40:56;;;;;;;13.23;7.60;;;;;;;;;;6184997;23;20012;-32
2022/11/22 12:43:24;;;;;;;12.80;6.93;;;;;;;;;;6183351;23;19989;-33
2022/11/22 12:45:55;;;;;;;12.60;7.00;;;;;;;;;;6183139;23;20118;-33
2022/11/22 12:48:24;;;;;;;12.88;7.20;;;;;;;;;;6181379;23;20004;-33
2022/11/22 12:50:52;;;;;;;13.30;7.53;;;;;;;;;;6181335;23;20001;-33
2022/11/22 12:53:24;;;;;;;13.15;6.75;;;;;;;;;;6180852;23;19993;-33
2022/11/22 12:56:03;;;;;;;13.35;6.95;;;;;;;;;;6182769;23;20001;-33
2022/11/22 12:58:35;;;;;;;12.20;6.80;;;;;;;;;;6183243;23;20001;-33
2022/11/22 13:01:16;;;;;;;15.98;8.63;;;;;;;;;;6184046;23;20384;-33
2022/11/22 13:04:04;;;;;;;17.35;9.80;;;;;;;;;;6182193;23;20410;-34
2022/11/22 13:06:37;;;;;;;20.63;10.00;;;;;;;;;;6113373;23;20109;-34
2022/11/22 13:09:06;;;;;;;21.38;10.70;;;;;;;;;;6182107;23;20037;-34
2022/11/22 13:11:44;;;;;;;27.02;10.27;;;;;;;;;;6182974;23;20028;-34
2022/11/22 13:14:25;;;;;;;23.02;10.23;;;;;;;;;;6181837;23;20004;-35
2022/11/22 13:16:52;;;;;;;18.38;9.70;;;;;;;;;;6157954;23;20421;-33
2022/11/22 13:19:21;;;;;;;17.58;10.43;;;;;;;;;;6185664;23;20000;-34
2022/11/22 13:21:49;;;;;;;18.75;10.70;;;;;;;;;;6133766;23;20018;-34
2022/11/22 13:24:33;;;;;;;24.77;10.20;;;;;;;;;;6158400;23;20008;-34
2022/11/22 13:27:19;;;;;;;17.70;10.13;;;;;;;;;;6159124;23;20005;-34
2022/11/22 13:29:46;;;;;;;17.30;9.25;;;;;;;;;;6159163;23;20003;-34
2022/11/22 13:32:11;;;;;;;21.80;9.40;;;;;;;;;;6182992;23;20031;-34
2022/11/22 13:35:00;;;;;;;19.35;8.70;;;;;;;;;;6183301;23;19997;-33
2022/11/22 13:37:25;;;;;;;15.20;8.52;;;;;;;;;;6113901;23;20001;-33
2022/11/22 13:39:51;;;;;;;15.38;8.80;;;;;;;;;;6183940;23;20017;-33
2022/11/22 13:42:18;;;;;;;15.73;8.27;;;;;;;;;;6183274;23;19997;-34
2022/11/22 13:44:51;;;;;;;14.65;8.43;;;;;;;;;;6157443;23;20005;-34
2022/11/22 13:47:16;;;;;;;16.42;7.68;;;;;;;;;;6184722;23;20020;-34
2022/11/22 13:49:44;;;;;;;15.90;8.65;;;;;;;;;;6184536;23;20001;-34
2022/11/22 13:52:09;;;;;;;18.75;7.75;;;;;;;;;;6183418;23;19997;-34
2022/11/22 13:54:34;;;;;;;13.55;8.05;;;;;;;;;;6158198;23;20080;-34
2022/11/22 13:57:05;;;;;;;15.57;8.63;;;;;;;;;;6184107;23;20320;-34
2022/11/22 13:59:30;;;;;;;13.75;8.13;;;;;;;;;;6183779;23;20488;-34
2022/11/22 14:02:00;;;;;;;15.57;8.00;;;;;;;;;;6184099;23;20087;-35
2022/11/22 14:04:28;;;;;;;15.27;8.27;;;;;;;;;;6184251;23;20005;-33
2022/11/22 14:07:05;;;;;;;14.02;7.97;;;;;;;;;;6183386;23;20004;-35
2022/11/22 14:09:43;;;;;;;13.40;8.00;;;;;;;;;;6182182;23;20039;-34
2022/11/22 14:12:24;;;;;;;14.45;7.97;;;;;;;;;;6181512;23;20009;-34
2022/11/22 14:14:59;;;;;;;17.77;8.18;;;;;;;;;;6182327;23;20016;-34
2022/11/22 14:17:29;;;;;;;13.60;7.68;;;;;;;;;;6158320;23;19997;-33
2022/11/22 14:19:54;;;;;;;16.60;8.10;;;;;;;;;;6182419;23;20021;-34
2022/11/22 14:22:20;;;;;;;13.45;7.60;;;;;;;;;;6183433;23;20000;-34
2022/11/22 14:25:14;;;;;;;15.85;8.02;;;;;;;;;;6183821;23;20313;-35
2022/11/22 14:27:58;;;;;;;18.30;9.75;;;;;;;;;;6182721;23;20001;-34
2022/11/22 14:30:37;;;;;;;20.00;9.85;;;;;;;;;;6184015;23;20001;-34
2022/11/22 14:33:23;;;;;;;18.40;10.60;;;;;;;;;;6183631;23;19996;-34
2022/11/22 14:36:07;;;;;;;20.92;11.40;;;;;;;;;;6183584;23;20000;-34